sensor_id;sensor_type;location;lat;lon;timestamp;P1;durP1;ratioP1;P2;durP2;ratioP2
42726;SDS011;28372;56.832;60.658;2023-08-12T00:00:03;10.13;;;4.80;;
42726;SDS011;28372;56.832;60.658;2023-08-12T00:02:42;6.68;;;4.18;;
42726;SDS011;28372;56.832;60.658;2023-08-12T00:05:11;8.35;;;4.22;;
42726;SDS011;28372;56.832;60.658;2023-08-12T00:07:40;7.50;;;4.53;;
42726;SDS011;28372;56.832;60.658;2023-08-12T00:10:11;7.22;;;4.13;;
42726;SDS011;28372;56.832;60.658;2023-08-12T00:12:39;8.30;;;4.05;;
42726;SDS011;28372;56.832;60.658;2023-08-12T00:15:07;7.55;;;4.13;;
42726;SDS011;28372;56.832;60.658;2023-08-12T00:17:37;7.97;;;4.38;;
42726;SDS011;28372;56.832;60.658;2023-08-12T00:20:09;7.85;;;4.47;;
42726;SDS011;28372;56.832;60.658;2023-08-12T00:22:39;6.78;;;3.80;;
42726;SDS011;28372;56.832;60.658;2023-08-12T00:25:07;7.15;;;3.72;;
42726;SDS011;28372;56.832;60.658;2023-08-12T00:27:35;6.72;;;3.83;;
42726;SDS011;28372;56.832;60.658;2023-08-12T00:30:05;8.32;;;3.67;;
42726;SDS011;28372;56.832;60.658;2023-08-12T00:32:35;7.88;;;3.75;;
42726;SDS011;28372;56.832;60.658;2023-08-12T00:35:04;8.27;;;4.00;;
42726;SDS011;28372;56.832;60.658;2023-08-12T00:37:32;6.30;;;3.78;;
42726;SDS011;28372;56.832;60.658;2023-08-12T00:40:00;6.55;;;3.63;;
42726;SDS011;28372;56.832;60.658;2023-08-12T00:42:30;8.35;;;4.00;;
42726;SDS011;28372;56.832;60.658;2023-08-12T00:44:58;5.95;;;3.53;;
42726;SDS011;28372;56.832;60.658;2023-08-12T00:47:31;6.38;;;4.10;;
42726;SDS011;28372;56.832;60.658;2023-08-12T00:49:59;6.88;;;3.95;;
42726;SDS011;28372;56.832;60.658;2023-08-12T00:52:30;7.03;;;3.92;;
42726;SDS011;28372;56.832;60.658;2023-08-12T00:54:58;7.38;;;4.03;;
42726;SDS011;28372;56.832;60.658;2023-08-12T00:57:26;8.43;;;4.18;;
42726;SDS011;28372;56.832;60.658;2023-08-12T00:59:55;6.78;;;3.90;;
42726;SDS011;28372;56.832;60.658;2023-08-12T01:02:23;8.13;;;4.18;;
42726;SDS011;28372;56.832;60.658;2023-08-12T01:04:51;6.60;;;4.35;;
42726;SDS011;28372;56.832;60.658;2023-08-12T01:07:20;8.05;;;4.25;;
42726;SDS011;28372;56.832;60.658;2023-08-12T01:09:47;8.50;;;4.50;;
42726;SDS011;28372;56.832;60.658;2023-08-12T01:12:22;8.80;;;4.60;;
42726;SDS011;28372;56.832;60.658;2023-08-12T01:17:30;9.30;;;4.90;;
42726;SDS011;28372;56.832;60.658;2023-08-12T01:20:01;7.80;;;3.92;;
42726;SDS011;28372;56.832;60.658;2023-08-12T01:22:37;7.25;;;4.22;;
42726;SDS011;28372;56.832;60.658;2023-08-12T01:25:09;7.47;;;4.43;;
42726;SDS011;28372;56.832;60.658;2023-08-12T01:27:37;7.97;;;4.55;;
42726;SDS011;28372;56.832;60.658;2023-08-12T01:30:05;8.48;;;4.53;;
42726;SDS011;28372;56.832;60.658;2023-08-12T01:35:21;7.65;;;4.30;;
42726;SDS011;28372;56.832;60.658;2023-08-12T01:37:53;8.30;;;4.25;;
42726;SDS011;28372;56.832;60.658;2023-08-12T01:40:24;8.48;;;4.30;;
42726;SDS011;28372;56.832;60.658;2023-08-12T01:42:55;7.10;;;4.10;;
42726;SDS011;28372;56.832;60.658;2023-08-12T01:45:23;8.30;;;3.80;;
42726;SDS011;28372;56.832;60.658;2023-08-12T01:47:51;7.07;;;3.60;;
42726;SDS011;28372;56.832;60.658;2023-08-12T01:50:21;6.70;;;3.67;;
42726;SDS011;28372;56.832;60.658;2023-08-12T01:52:49;6.93;;;3.65;;
42726;SDS011;28372;56.832;60.658;2023-08-12T01:55:16;7.68;;;3.85;;
42726;SDS011;28372;56.832;60.658;2023-08-12T01:57:45;7.43;;;3.55;;
42726;SDS011;28372;56.832;60.658;2023-08-12T02:00:13;7.50;;;3.55;;
42726;SDS011;28372;56.832;60.658;2023-08-12T02:02:43;6.70;;;3.38;;
42726;SDS011;28372;56.832;60.658;2023-08-12T02:05:14;8.43;;;3.80;;
42726;SDS011;28372;56.832;60.658;2023-08-12T02:07:42;6.90;;;3.28;;
42726;SDS011;28372;56.832;60.658;2023-08-12T02:10:10;5.75;;;3.38;;
42726;SDS011;28372;56.832;60.658;2023-08-12T02:12:38;6.85;;;3.28;;
42726;SDS011;28372;56.832;60.658;2023-08-12T02:15:06;5.60;;;3.30;;
42726;SDS011;28372;56.832;60.658;2023-08-12T02:17:34;7.30;;;3.17;;
42726;SDS011;28372;56.832;60.658;2023-08-12T02:20:02;8.45;;;3.00;;
42726;SDS011;28372;56.832;60.658;2023-08-12T02:22:31;6.63;;;3.08;;
42726;SDS011;28372;56.832;60.658;2023-08-12T02:24:59;5.15;;;3.13;;
42726;SDS011;28372;56.832;60.658;2023-08-12T02:27:29;7.03;;;3.08;;
42726;SDS011;28372;56.832;60.658;2023-08-12T02:29:57;7.50;;;3.15;;
42726;SDS011;28372;56.832;60.658;2023-08-12T02:32:29;5.43;;;2.73;;
42726;SDS011;28372;56.832;60.658;2023-08-12T02:34:57;7.85;;;2.80;;
42726;SDS011;28372;56.832;60.658;2023-08-12T02:37:25;5.35;;;2.90;;
42726;SDS011;28372;56.832;60.658;2023-08-12T02:39:53;5.25;;;2.88;;
42726;SDS011;28372;56.832;60.658;2023-08-12T02:42:21;5.28;;;2.67;;
42726;SDS011;28372;56.832;60.658;2023-08-12T02:44:49;8.02;;;2.90;;
42726;SDS011;28372;56.832;60.658;2023-08-12T02:47:16;6.05;;;2.85;;
42726;SDS011;28372;56.832;60.658;2023-08-12T02:49:44;5.85;;;2.70;;
42726;SDS011;28372;56.832;60.658;2023-08-12T02:52:12;6.35;;;2.70;;
42726;SDS011;28372;56.832;60.658;2023-08-12T02:54:39;5.60;;;2.80;;
42726;SDS011;28372;56.832;60.658;2023-08-12T02:57:07;7.00;;;2.60;;
42726;SDS011;28372;56.832;60.658;2023-08-12T02:59:36;8.45;;;2.80;;
42726;SDS011;28372;56.832;60.658;2023-08-12T03:02:03;5.53;;;2.85;;
42726;SDS011;28372;56.832;60.658;2023-08-12T03:04:31;5.68;;;2.45;;
42726;SDS011;28372;56.832;60.658;2023-08-12T03:06:59;4.55;;;2.40;;
42726;SDS011;28372;56.832;60.658;2023-08-12T03:09:27;5.97;;;2.28;;
42726;SDS011;28372;56.832;60.658;2023-08-12T03:11:55;8.52;;;2.72;;
42726;SDS011;28372;56.832;60.658;2023-08-12T03:14:22;6.65;;;2.70;;
42726;SDS011;28372;56.832;60.658;2023-08-12T03:16:50;7.25;;;2.78;;
42726;SDS011;28372;56.832;60.658;2023-08-12T03:19:18;8.48;;;2.40;;
42726;SDS011;28372;56.832;60.658;2023-08-12T03:21:46;3.95;;;2.03;;
42726;SDS011;28372;56.832;60.658;2023-08-12T03:24:13;6.30;;;1.98;;
42726;SDS011;28372;56.832;60.658;2023-08-12T03:26:41;4.22;;;1.83;;
42726;SDS011;28372;56.832;60.658;2023-08-12T03:29:09;3.75;;;1.73;;
42726;SDS011;28372;56.832;60.658;2023-08-12T03:31:41;4.85;;;1.98;;
42726;SDS011;28372;56.832;60.658;2023-08-12T03:34:10;3.72;;;1.70;;
42726;SDS011;28372;56.832;60.658;2023-08-12T03:36:39;4.82;;;1.75;;
42726;SDS011;28372;56.832;60.658;2023-08-12T03:39:09;4.13;;;1.90;;
42726;SDS011;28372;56.832;60.658;2023-08-12T03:41:37;3.58;;;1.77;;
42726;SDS011;28372;56.832;60.658;2023-08-12T03:44:05;3.05;;;1.58;;
42726;SDS011;28372;56.832;60.658;2023-08-12T03:46:33;4.97;;;1.95;;
42726;SDS011;28372;56.832;60.658;2023-08-12T03:49:02;4.00;;;1.92;;
42726;SDS011;28372;56.832;60.658;2023-08-12T03:51:30;4.10;;;1.70;;
42726;SDS011;28372;56.832;60.658;2023-08-12T03:53:58;4.55;;;1.75;;
42726;SDS011;28372;56.832;60.658;2023-08-12T03:56:28;3.20;;;1.70;;
42726;SDS011;28372;56.832;60.658;2023-08-12T03:58:55;2.97;;;1.60;;
42726;SDS011;28372;56.832;60.658;2023-08-12T04:01:23;5.18;;;1.80;;
42726;SDS011;28372;56.832;60.658;2023-08-12T04:03:51;4.82;;;1.88;;
42726;SDS011;28372;56.832;60.658;2023-08-12T04:06:19;3.70;;;2.00;;
42726;SDS011;28372;56.832;60.658;2023-08-12T04:08:47;4.18;;;1.80;;
42726;SDS011;28372;56.832;60.658;2023-08-12T04:11:15;3.67;;;2.00;;
42726;SDS011;28372;56.832;60.658;2023-08-12T04:13:42;4.10;;;2.25;;
42726;SDS011;28372;56.832;60.658;2023-08-12T04:16:12;4.93;;;2.05;;
42726;SDS011;28372;56.832;60.658;2023-08-12T04:18:41;4.25;;;2.45;;
42726;SDS011;28372;56.832;60.658;2023-08-12T04:21:09;4.78;;;2.72;;
42726;SDS011;28372;56.832;60.658;2023-08-12T04:23:38;5.47;;;3.15;;
42726;SDS011;28372;56.832;60.658;2023-08-12T04:26:06;6.65;;;3.22;;
42726;SDS011;28372;56.832;60.658;2023-08-12T04:28:34;4.97;;;3.13;;
42726;SDS011;28372;56.832;60.658;2023-08-12T04:31:06;6.30;;;3.85;;
42726;SDS011;28372;56.832;60.658;2023-08-12T04:33:40;8.60;;;3.97;;
42726;SDS011;28372;56.832;60.658;2023-08-12T04:36:08;5.80;;;4.05;;
42726;SDS011;28372;56.832;60.658;2023-08-12T04:38:37;7.25;;;4.15;;
42726;SDS011;28372;56.832;60.658;2023-08-12T04:41:08;11.68;;;5.60;;
42726;SDS011;28372;56.832;60.658;2023-08-12T04:43:37;9.75;;;6.32;;
42726;SDS011;28372;56.832;60.658;2023-08-12T04:46:05;10.82;;;6.60;;
42726;SDS011;28372;56.832;60.658;2023-08-12T04:48:34;10.30;;;7.13;;
42726;SDS011;28372;56.832;60.658;2023-08-12T04:51:01;13.77;;;8.50;;
42726;SDS011;28372;56.832;60.658;2023-08-12T04:53:30;12.60;;;7.88;;
42726;SDS011;28372;56.832;60.658;2023-08-12T04:55:58;12.85;;;7.25;;
42726;SDS011;28372;56.832;60.658;2023-08-12T04:58:26;12.75;;;7.13;;
42726;SDS011;28372;56.832;60.658;2023-08-12T05:00:54;14.07;;;7.82;;
42726;SDS011;28372;56.832;60.658;2023-08-12T05:03:22;12.02;;;7.53;;
42726;SDS011;28372;56.832;60.658;2023-08-12T05:05:52;11.88;;;7.20;;
42726;SDS011;28372;56.832;60.658;2023-08-12T05:08:24;11.80;;;7.63;;
42726;SDS011;28372;56.832;60.658;2023-08-12T05:10:52;12.95;;;7.97;;
42726;SDS011;28372;56.832;60.658;2023-08-12T05:13:21;11.60;;;7.45;;
42726;SDS011;28372;56.832;60.658;2023-08-12T05:15:51;11.77;;;7.75;;
42726;SDS011;28372;56.832;60.658;2023-08-12T05:18:21;10.18;;;6.70;;
42726;SDS011;28372;56.832;60.658;2023-08-12T05:20:51;12.82;;;6.65;;
42726;SDS011;28372;56.832;60.658;2023-08-12T05:23:22;10.65;;;6.35;;
42726;SDS011;28372;56.832;60.658;2023-08-12T05:25:51;8.95;;;5.72;;
42726;SDS011;28372;56.832;60.658;2023-08-12T05:28:21;10.35;;;5.95;;
42726;SDS011;28372;56.832;60.658;2023-08-12T05:30:49;8.98;;;5.35;;
42726;SDS011;28372;56.832;60.658;2023-08-12T05:33:17;9.82;;;5.47;;
42726;SDS011;28372;56.832;60.658;2023-08-12T05:35:46;6.93;;;4.28;;
42726;SDS011;28372;56.832;60.658;2023-08-12T05:38:14;7.20;;;4.20;;
42726;SDS011;28372;56.832;60.658;2023-08-12T05:40:42;7.07;;;3.40;;
42726;SDS011;28372;56.832;60.658;2023-08-12T05:43:10;6.82;;;3.03;;
42726;SDS011;28372;56.832;60.658;2023-08-12T05:45:38;6.35;;;3.05;;
42726;SDS011;28372;56.832;60.658;2023-08-12T05:48:05;5.32;;;2.90;;
42726;SDS011;28372;56.832;60.658;2023-08-12T05:50:33;5.60;;;3.20;;
42726;SDS011;28372;56.832;60.658;2023-08-12T05:53:01;5.55;;;2.63;;
42726;SDS011;28372;56.832;60.658;2023-08-12T05:55:29;4.95;;;2.78;;
42726;SDS011;28372;56.832;60.658;2023-08-12T05:57:57;5.60;;;2.47;;
42726;SDS011;28372;56.832;60.658;2023-08-12T06:00:25;4.25;;;2.08;;
42726;SDS011;28372;56.832;60.658;2023-08-12T06:02:52;6.18;;;1.83;;
42726;SDS011;28372;56.832;60.658;2023-08-12T06:05:20;5.07;;;1.40;;
42726;SDS011;28372;56.832;60.658;2023-08-12T06:07:48;4.05;;;1.33;;
42726;SDS011;28372;56.832;60.658;2023-08-12T06:10:16;3.10;;;1.40;;
42726;SDS011;28372;56.832;60.658;2023-08-12T06:12:44;3.42;;;1.30;;
42726;SDS011;28372;56.832;60.658;2023-08-12T06:15:12;4.28;;;1.20;;
42726;SDS011;28372;56.832;60.658;2023-08-12T06:17:40;3.55;;;1.10;;
42726;SDS011;28372;56.832;60.658;2023-08-12T06:20:08;3.90;;;1.17;;
42726;SDS011;28372;56.832;60.658;2023-08-12T06:22:36;5.38;;;1.23;;
42726;SDS011;28372;56.832;60.658;2023-08-12T06:25:04;4.32;;;1.00;;
42726;SDS011;28372;56.832;60.658;2023-08-12T06:27:32;5.13;;;1.30;;
42726;SDS011;28372;56.832;60.658;2023-08-12T06:29:59;4.28;;;1.13;;
42726;SDS011;28372;56.832;60.658;2023-08-12T06:32:31;5.93;;;1.17;;
42726;SDS011;28372;56.832;60.658;2023-08-12T06:35:00;3.70;;;1.10;;
42726;SDS011;28372;56.832;60.658;2023-08-12T06:37:29;4.55;;;1.00;;
42726;SDS011;28372;56.832;60.658;2023-08-12T06:39:57;3.53;;;1.02;;
42726;SDS011;28372;56.832;60.658;2023-08-12T06:42:24;4.63;;;0.90;;
42726;SDS011;28372;56.832;60.658;2023-08-12T06:44:57;2.03;;;0.90;;
42726;SDS011;28372;56.832;60.658;2023-08-12T06:47:29;3.63;;;1.10;;
42726;SDS011;28372;56.832;60.658;2023-08-12T06:49:57;5.05;;;1.20;;
42726;SDS011;28372;56.832;60.658;2023-08-12T06:52:25;3.10;;;0.93;;
42726;SDS011;28372;56.832;60.658;2023-08-12T06:54:53;2.85;;;1.08;;
42726;SDS011;28372;56.832;60.658;2023-08-12T06:57:21;3.70;;;0.93;;
42726;SDS011;28372;56.832;60.658;2023-08-12T06:59:49;3.28;;;1.00;;
42726;SDS011;28372;56.832;60.658;2023-08-12T07:02:16;4.95;;;1.10;;
42726;SDS011;28372;56.832;60.658;2023-08-12T07:04:44;2.97;;;1.00;;
42726;SDS011;28372;56.832;60.658;2023-08-12T07:07:12;3.80;;;0.98;;
42726;SDS011;28372;56.832;60.658;2023-08-12T07:09:40;3.00;;;1.00;;
42726;SDS011;28372;56.832;60.658;2023-08-12T07:12:07;3.42;;;1.20;;
42726;SDS011;28372;56.832;60.658;2023-08-12T07:14:35;3.22;;;1.20;;
42726;SDS011;28372;56.832;60.658;2023-08-12T07:17:03;2.47;;;1.08;;
42726;SDS011;28372;56.832;60.658;2023-08-12T07:19:31;4.15;;;0.90;;
42726;SDS011;28372;56.832;60.658;2023-08-12T07:21:59;3.75;;;1.13;;
42726;SDS011;28372;56.832;60.658;2023-08-12T07:24:26;4.22;;;1.00;;
42726;SDS011;28372;56.832;60.658;2023-08-12T07:26:54;2.30;;;1.00;;
42726;SDS011;28372;56.832;60.658;2023-08-12T07:29:22;3.10;;;1.13;;
42726;SDS011;28372;56.832;60.658;2023-08-12T07:31:51;2.97;;;1.23;;
42726;SDS011;28372;56.832;60.658;2023-08-12T07:34:19;3.10;;;1.00;;
42726;SDS011;28372;56.832;60.658;2023-08-12T07:36:47;3.70;;;1.20;;
42726;SDS011;28372;56.832;60.658;2023-08-12T07:39:15;3.97;;;1.00;;
42726;SDS011;28372;56.832;60.658;2023-08-12T07:41:43;4.60;;;1.15;;
42726;SDS011;28372;56.832;60.658;2023-08-12T07:44:10;3.35;;;1.45;;
42726;SDS011;28372;56.832;60.658;2023-08-12T07:46:38;4.40;;;1.27;;
42726;SDS011;28372;56.832;60.658;2023-08-12T07:49:06;4.05;;;1.00;;
42726;SDS011;28372;56.832;60.658;2023-08-12T07:51:33;1.92;;;0.95;;
42726;SDS011;28372;56.832;60.658;2023-08-12T07:54:01;3.75;;;1.15;;
42726;SDS011;28372;56.832;60.658;2023-08-12T07:56:29;5.85;;;1.30;;
42726;SDS011;28372;56.832;60.658;2023-08-12T07:58:56;4.40;;;1.45;;
42726;SDS011;28372;56.832;60.658;2023-08-12T08:01:24;4.22;;;1.67;;
42726;SDS011;28372;56.832;60.658;2023-08-12T08:03:52;4.78;;;1.60;;
42726;SDS011;28372;56.832;60.658;2023-08-12T08:06:21;3.60;;;1.48;;
42726;SDS011;28372;56.832;60.658;2023-08-12T08:08:50;4.65;;;1.27;;
42726;SDS011;28372;56.832;60.658;2023-08-12T08:11:18;3.63;;;1.38;;
42726;SDS011;28372;56.832;60.658;2023-08-12T08:13:45;2.38;;;1.15;;
42726;SDS011;28372;56.832;60.658;2023-08-12T08:16:13;2.83;;;1.30;;
42726;SDS011;28372;56.832;60.658;2023-08-12T08:18:41;3.85;;;2.40;;
42726;SDS011;28372;56.832;60.658;2023-08-12T08:21:10;3.70;;;1.63;;
42726;SDS011;28372;56.832;60.658;2023-08-12T08:23:39;4.07;;;2.00;;
42726;SDS011;28372;56.832;60.658;2023-08-12T08:26:09;5.00;;;1.60;;
42726;SDS011;28372;56.832;60.658;2023-08-12T08:28:37;5.70;;;1.73;;
42726;SDS011;28372;56.832;60.658;2023-08-12T08:31:05;3.17;;;1.60;;
42726;SDS011;28372;56.832;60.658;2023-08-12T08:33:33;4.10;;;1.60;;
42726;SDS011;28372;56.832;60.658;2023-08-12T08:36:00;3.20;;;1.45;;
42726;SDS011;28372;56.832;60.658;2023-08-12T08:38:28;3.13;;;1.75;;
42726;SDS011;28372;56.832;60.658;2023-08-12T08:40:56;10.80;;;1.70;;
42726;SDS011;28372;56.832;60.658;2023-08-12T08:43:25;3.97;;;1.77;;
42726;SDS011;28372;56.832;60.658;2023-08-12T08:45:54;4.25;;;1.60;;
42726;SDS011;28372;56.832;60.658;2023-08-12T08:48:22;4.25;;;1.67;;
42726;SDS011;28372;56.832;60.658;2023-08-12T08:50:50;3.25;;;1.80;;
42726;SDS011;28372;56.832;60.658;2023-08-12T08:53:19;6.32;;;2.28;;
42726;SDS011;28372;56.832;60.658;2023-08-12T08:55:47;7.15;;;2.20;;
42726;SDS011;28372;56.832;60.658;2023-08-12T08:58:15;3.45;;;1.73;;
42726;SDS011;28372;56.832;60.658;2023-08-12T09:00:48;4.63;;;1.60;;
42726;SDS011;28372;56.832;60.658;2023-08-12T09:03:16;4.32;;;1.40;;
42726;SDS011;28372;56.832;60.658;2023-08-12T09:05:45;4.03;;;1.50;;
42726;SDS011;28372;56.832;60.658;2023-08-12T09:08:14;4.88;;;1.50;;
42726;SDS011;28372;56.832;60.658;2023-08-12T09:10:44;5.75;;;1.83;;
42726;SDS011;28372;56.832;60.658;2023-08-12T09:13:13;3.45;;;1.67;;
42726;SDS011;28372;56.832;60.658;2023-08-12T09:15:42;7.13;;;2.00;;
42726;SDS011;28372;56.832;60.658;2023-08-12T09:18:09;8.32;;;1.80;;
42726;SDS011;28372;56.832;60.658;2023-08-12T09:20:37;3.45;;;1.58;;
42726;SDS011;28372;56.832;60.658;2023-08-12T09:23:05;3.50;;;1.55;;
42726;SDS011;28372;56.832;60.658;2023-08-12T09:25:45;4.25;;;1.45;;
42726;SDS011;28372;56.832;60.658;2023-08-12T09:28:13;4.75;;;1.38;;
42726;SDS011;28372;56.832;60.658;2023-08-12T09:30:41;3.45;;;1.50;;
42726;SDS011;28372;56.832;60.658;2023-08-12T09:33:08;5.10;;;1.90;;
42726;SDS011;28372;56.832;60.658;2023-08-12T09:35:39;4.95;;;1.70;;
42726;SDS011;28372;56.832;60.658;2023-08-12T09:38:11;3.42;;;1.25;;
42726;SDS011;28372;56.832;60.658;2023-08-12T09:40:40;3.83;;;1.40;;
42726;SDS011;28372;56.832;60.658;2023-08-12T09:43:09;7.05;;;1.90;;
42726;SDS011;28372;56.832;60.658;2023-08-12T09:45:39;5.93;;;1.60;;
42726;SDS011;28372;56.832;60.658;2023-08-12T09:48:08;4.72;;;1.70;;
42726;SDS011;28372;56.832;60.658;2023-08-12T09:50:40;5.22;;;1.55;;
42726;SDS011;28372;56.832;60.658;2023-08-12T09:53:08;2.63;;;1.40;;
42726;SDS011;28372;56.832;60.658;2023-08-12T09:55:36;4.00;;;1.48;;
42726;SDS011;28372;56.832;60.658;2023-08-12T09:58:06;3.28;;;1.30;;
42726;SDS011;28372;56.832;60.658;2023-08-12T10:00:37;3.53;;;1.30;;
42726;SDS011;28372;56.832;60.658;2023-08-12T10:03:05;3.83;;;1.30;;
42726;SDS011;28372;56.832;60.658;2023-08-12T10:05:33;4.32;;;1.35;;
42726;SDS011;28372;56.832;60.658;2023-08-12T10:08:02;7.07;;;1.40;;
42726;SDS011;28372;56.832;60.658;2023-08-12T10:10:32;3.60;;;1.38;;
42726;SDS011;28372;56.832;60.658;2023-08-12T10:13:02;2.67;;;1.40;;
42726;SDS011;28372;56.832;60.658;2023-08-12T10:15:34;3.47;;;1.58;;
42726;SDS011;28372;56.832;60.658;2023-08-12T10:18:03;2.92;;;1.20;;
42726;SDS011;28372;56.832;60.658;2023-08-12T10:20:37;3.72;;;1.40;;
42726;SDS011;28372;56.832;60.658;2023-08-12T10:23:06;3.20;;;1.23;;
42726;SDS011;28372;56.832;60.658;2023-08-12T10:25:35;4.05;;;1.60;;
42726;SDS011;28372;56.832;60.658;2023-08-12T10:28:05;4.18;;;1.40;;
42726;SDS011;28372;56.832;60.658;2023-08-12T10:30:33;3.72;;;1.30;;
42726;SDS011;28372;56.832;60.658;2023-08-12T10:33:02;2.25;;;1.20;;
42726;SDS011;28372;56.832;60.658;2023-08-12T10:35:42;6.75;;;1.50;;
42726;SDS011;28372;56.832;60.658;2023-08-12T10:38:18;5.38;;;1.33;;
42726;SDS011;28372;56.832;60.658;2023-08-12T10:40:47;3.50;;;1.10;;
42726;SDS011;28372;56.832;60.658;2023-08-12T10:43:15;3.78;;;1.10;;
42726;SDS011;28372;56.832;60.658;2023-08-12T10:45:47;3.17;;;1.27;;
42726;SDS011;28372;56.832;60.658;2023-08-12T10:48:23;3.83;;;1.30;;
42726;SDS011;28372;56.832;60.658;2023-08-12T10:50:53;3.45;;;1.15;;
42726;SDS011;28372;56.832;60.658;2023-08-12T10:53:24;4.63;;;1.33;;
42726;SDS011;28372;56.832;60.658;2023-08-12T10:55:57;4.38;;;1.23;;
42726;SDS011;28372;56.832;60.658;2023-08-12T10:58:27;3.72;;;1.48;;
42726;SDS011;28372;56.832;60.658;2023-08-12T11:00:57;3.30;;;1.35;;
42726;SDS011;28372;56.832;60.658;2023-08-12T11:03:25;3.10;;;1.10;;
42726;SDS011;28372;56.832;60.658;2023-08-12T11:06:02;2.00;;;1.10;;
42726;SDS011;28372;56.832;60.658;2023-08-12T11:08:30;3.10;;;1.30;;
42726;SDS011;28372;56.832;60.658;2023-08-12T11:10:58;5.00;;;1.40;;
42726;SDS011;28372;56.832;60.658;2023-08-12T11:13:29;2.85;;;1.20;;
42726;SDS011;28372;56.832;60.658;2023-08-12T11:16:07;5.20;;;1.30;;
42726;SDS011;28372;56.832;60.658;2023-08-12T11:18:37;3.97;;;1.40;;
42726;SDS011;28372;56.832;60.658;2023-08-12T11:21:04;3.50;;;1.08;;
42726;SDS011;28372;56.832;60.658;2023-08-12T11:23:33;3.08;;;1.10;;
42726;SDS011;28372;56.832;60.658;2023-08-12T11:26:01;2.35;;;1.00;;
42726;SDS011;28372;56.832;60.658;2023-08-12T11:28:30;3.50;;;1.20;;
42726;SDS011;28372;56.832;60.658;2023-08-12T11:30:58;2.45;;;1.10;;
42726;SDS011;28372;56.832;60.658;2023-08-12T11:33:26;3.88;;;1.30;;
42726;SDS011;28372;56.832;60.658;2023-08-12T11:35:54;5.30;;;1.30;;
42726;SDS011;28372;56.832;60.658;2023-08-12T11:38:22;2.38;;;1.27;;
42726;SDS011;28372;56.832;60.658;2023-08-12T11:40:50;2.45;;;1.30;;
42726;SDS011;28372;56.832;60.658;2023-08-12T11:43:20;2.80;;;1.30;;
42726;SDS011;28372;56.832;60.658;2023-08-12T11:45:49;4.38;;;1.15;;
42726;SDS011;28372;56.832;60.658;2023-08-12T11:48:16;3.65;;;1.30;;
42726;SDS011;28372;56.832;60.658;2023-08-12T11:50:44;3.65;;;1.20;;
42726;SDS011;28372;56.832;60.658;2023-08-12T11:53:12;6.10;;;1.40;;
42726;SDS011;28372;56.832;60.658;2023-08-12T11:55:40;2.50;;;1.20;;
42726;SDS011;28372;56.832;60.658;2023-08-12T11:58:08;2.03;;;1.10;;
42726;SDS011;28372;56.832;60.658;2023-08-12T12:00:35;2.60;;;1.10;;
42726;SDS011;28372;56.832;60.658;2023-08-12T12:03:04;4.00;;;1.25;;
42726;SDS011;28372;56.832;60.658;2023-08-12T12:05:33;4.70;;;1.20;;
42726;SDS011;28372;56.832;60.658;2023-08-12T12:08:02;3.92;;;1.27;;
42726;SDS011;28372;56.832;60.658;2023-08-12T12:10:32;2.63;;;1.38;;
42726;SDS011;28372;56.832;60.658;2023-08-12T12:13:02;3.17;;;1.10;;
42726;SDS011;28372;56.832;60.658;2023-08-12T12:15:37;3.53;;;1.20;;
42726;SDS011;28372;56.832;60.658;2023-08-12T12:18:11;3.33;;;1.20;;
42726;SDS011;28372;56.832;60.658;2023-08-12T12:20:58;3.55;;;1.30;;
42726;SDS011;28372;56.832;60.658;2023-08-12T12:23:28;5.35;;;1.30;;
42726;SDS011;28372;56.832;60.658;2023-08-12T12:25:57;3.47;;;1.38;;
42726;SDS011;28372;56.832;60.658;2023-08-12T12:28:26;4.60;;;1.80;;
42726;SDS011;28372;56.832;60.658;2023-08-12T12:30:54;2.95;;;1.60;;
42726;SDS011;28372;56.832;60.658;2023-08-12T12:33:22;4.55;;;1.90;;
42726;SDS011;28372;56.832;60.658;2023-08-12T12:35:50;6.05;;;1.63;;
42726;SDS011;28372;56.832;60.658;2023-08-12T12:38:25;4.05;;;1.50;;
42726;SDS011;28372;56.832;60.658;2023-08-12T12:40:54;4.03;;;1.63;;
42726;SDS011;28372;56.832;60.658;2023-08-12T12:43:21;6.28;;;1.80;;
42726;SDS011;28372;56.832;60.658;2023-08-12T12:45:49;2.90;;;1.65;;
42726;SDS011;28372;56.832;60.658;2023-08-12T12:48:17;4.88;;;1.85;;
42726;SDS011;28372;56.832;60.658;2023-08-12T12:50:45;4.68;;;1.65;;
42726;SDS011;28372;56.832;60.658;2023-08-12T12:53:12;4.30;;;1.70;;
42726;SDS011;28372;56.832;60.658;2023-08-12T12:55:40;3.22;;;1.38;;
42726;SDS011;28372;56.832;60.658;2023-08-12T12:58:08;3.80;;;1.92;;
42726;SDS011;28372;56.832;60.658;2023-08-12T13:00:38;3.80;;;2.08;;
42726;SDS011;28372;56.832;60.658;2023-08-12T13:03:06;4.13;;;2.20;;
42726;SDS011;28372;56.832;60.658;2023-08-12T13:05:34;4.20;;;2.20;;
42726;SDS011;28372;56.832;60.658;2023-08-12T13:08:02;4.75;;;1.98;;
42726;SDS011;28372;56.832;60.658;2023-08-12T13:10:30;6.97;;;2.05;;
42726;SDS011;28372;56.832;60.658;2023-08-12T13:12:58;4.68;;;2.10;;
42726;SDS011;28372;56.832;60.658;2023-08-12T13:15:25;4.55;;;1.92;;
42726;SDS011;28372;56.832;60.658;2023-08-12T13:17:53;5.97;;;2.33;;
42726;SDS011;28372;56.832;60.658;2023-08-12T13:20:21;7.13;;;2.10;;
42726;SDS011;28372;56.832;60.658;2023-08-12T13:22:49;4.95;;;1.80;;
42726;SDS011;28372;56.832;60.658;2023-08-12T13:25:17;4.50;;;2.10;;
42726;SDS011;28372;56.832;60.658;2023-08-12T13:27:45;4.38;;;1.90;;
42726;SDS011;28372;56.832;60.658;2023-08-12T13:30:12;3.53;;;1.67;;
42726;SDS011;28372;56.832;60.658;2023-08-12T13:32:40;3.53;;;1.60;;
42726;SDS011;28372;56.832;60.658;2023-08-12T13:35:08;4.55;;;1.70;;
42726;SDS011;28372;56.832;60.658;2023-08-12T13:37:36;3.90;;;1.80;;
42726;SDS011;28372;56.832;60.658;2023-08-12T13:40:03;5.25;;;1.90;;
42726;SDS011;28372;56.832;60.658;2023-08-12T13:42:32;4.30;;;1.70;;
42726;SDS011;28372;56.832;60.658;2023-08-12T13:45:00;3.47;;;1.90;;
42726;SDS011;28372;56.832;60.658;2023-08-12T13:47:31;6.32;;;2.05;;
42726;SDS011;28372;56.832;60.658;2023-08-12T13:50:01;4.80;;;1.85;;
42726;SDS011;28372;56.832;60.658;2023-08-12T13:52:31;3.45;;;1.70;;
42726;SDS011;28372;56.832;60.658;2023-08-12T13:54:59;3.88;;;1.95;;
42726;SDS011;28372;56.832;60.658;2023-08-12T13:57:29;4.70;;;1.80;;
42726;SDS011;28372;56.832;60.658;2023-08-12T13:59:58;5.70;;;1.80;;
42726;SDS011;28372;56.832;60.658;2023-08-12T14:02:25;4.00;;;1.88;;
42726;SDS011;28372;56.832;60.658;2023-08-12T14:04:56;4.05;;;1.92;;
42726;SDS011;28372;56.832;60.658;2023-08-12T14:07:24;4.05;;;1.95;;
42726;SDS011;28372;56.832;60.658;2023-08-12T14:09:51;5.47;;;2.20;;
42726;SDS011;28372;56.832;60.658;2023-08-12T14:12:19;7.32;;;2.90;;
42726;SDS011;28372;56.832;60.658;2023-08-12T14:14:47;9.20;;;3.90;;
42726;SDS011;28372;56.832;60.658;2023-08-12T14:17:15;7.18;;;3.30;;
42726;SDS011;28372;56.832;60.658;2023-08-12T14:19:47;6.45;;;3.05;;
42726;SDS011;28372;56.832;60.658;2023-08-12T14:22:16;3.88;;;2.00;;
42726;SDS011;28372;56.832;60.658;2023-08-12T14:24:44;7.15;;;2.20;;
42726;SDS011;28372;56.832;60.658;2023-08-12T14:27:12;5.18;;;2.00;;
42726;SDS011;28372;56.832;60.658;2023-08-12T14:29:41;3.97;;;1.80;;
42726;SDS011;28372;56.832;60.658;2023-08-12T14:32:09;4.32;;;1.70;;
42726;SDS011;28372;56.832;60.658;2023-08-12T14:34:37;5.75;;;1.77;;
42726;SDS011;28372;56.832;60.658;2023-08-12T14:37:05;4.70;;;1.90;;
42726;SDS011;28372;56.832;60.658;2023-08-12T14:39:34;5.60;;;2.08;;
42726;SDS011;28372;56.832;60.658;2023-08-12T14:42:02;5.70;;;2.38;;
42726;SDS011;28372;56.832;60.658;2023-08-12T14:44:31;6.05;;;2.20;;
42726;SDS011;28372;56.832;60.658;2023-08-12T14:47:03;6.75;;;2.35;;